sensor_id;sensor_type;location;lat;lon;timestamp;P1;durP1;ratioP1;P2;durP2;ratioP2
78664;SDS011;67981;51.022;-2.870;2023-08-08T00:01:39;3.20;;;1.60;;
78664;SDS011;67981;51.022;-2.870;2023-08-08T00:04:08;3.90;;;1.60;;
78664;SDS011;67981;51.022;-2.870;2023-08-08T00:06:34;2.35;;;1.33;;
78664;SDS011;67981;51.022;-2.870;2023-08-08T00:08:59;2.63;;;1.63;;
78664;SDS011;67981;51.022;-2.870;2023-08-08T00:11:25;3.47;;;1.40;;
78664;SDS011;67981;51.022;-2.870;2023-08-08T00:13:50;3.40;;;1.60;;
78664;SDS011;67981;51.022;-2.870;2023-08-08T00:16:15;5.93;;;1.55;;
78664;SDS011;67981;51.022;-2.870;2023-08-08T00:18:41;4.90;;;1.48;;
78664;SDS011;67981;51.022;-2.870;2023-08-08T00:21:06;3.90;;;1.70;;
78664;SDS011;67981;51.022;-2.870;2023-08-08T00:23:32;3.08;;;1.52;;
78664;SDS011;67981;51.022;-2.870;2023-08-08T00:25:57;3.35;;;1.17;;
78664;SDS011;67981;51.022;-2.870;2023-08-08T00:28:22;3.40;;;1.70;;
78664;SDS011;67981;51.022;-2.870;2023-08-08T00:30:48;5.38;;;1.77;;
78664;SDS011;67981;51.022;-2.870;2023-08-08T00:33:14;4.38;;;2.15;;
78664;SDS011;67981;51.022;-2.870;2023-08-08T00:35:39;3.97;;;1.90;;
78664;SDS011;67981;51.022;-2.870;2023-08-08T00:38:04;5.07;;;1.50;;
78664;SDS011;67981;51.022;-2.870;2023-08-08T00:40:30;2.40;;;1.27;;
78664;SDS011;67981;51.022;-2.870;2023-08-08T00:42:55;3.33;;;1.05;;
78664;SDS011;67981;51.022;-2.870;2023-08-08T00:45:21;3.40;;;1.88;;
78664;SDS011;67981;51.022;-2.870;2023-08-08T00:47:46;3.45;;;1.42;;
78664;SDS011;67981;51.022;-2.870;2023-08-08T00:50:11;3.00;;;1.13;;
78664;SDS011;67981;51.022;-2.870;2023-08-08T00:52:38;3.15;;;1.30;;
78664;SDS011;67981;51.022;-2.870;2023-08-08T00:55:06;2.22;;;1.40;;
78664;SDS011;67981;51.022;-2.870;2023-08-08T00:57:32;4.38;;;1.20;;
78664;SDS011;67981;51.022;-2.870;2023-08-08T01:00:00;2.13;;;1.23;;
78664;SDS011;67981;51.022;-2.870;2023-08-08T01:02:25;2.28;;;1.30;;
78664;SDS011;67981;51.022;-2.870;2023-08-08T01:04:51;4.13;;;2.20;;
78664;SDS011;67981;51.022;-2.870;2023-08-08T01:10:09;3.10;;;1.67;;
78664;SDS011;67981;51.022;-2.870;2023-08-08T01:12:44;4.13;;;1.85;;
78664;SDS011;67981;51.022;-2.870;2023-08-08T01:15:13;6.40;;;1.83;;
78664;SDS011;67981;51.022;-2.870;2023-08-08T01:17:40;3.78;;;1.75;;
78664;SDS011;67981;51.022;-2.870;2023-08-08T01:20:07;3.05;;;1.13;;
78664;SDS011;67981;51.022;-2.870;2023-08-08T01:22:40;2.03;;;1.20;;
78664;SDS011;67981;51.022;-2.870;2023-08-08T01:25:13;5.22;;;1.70;;
78664;SDS011;67981;51.022;-2.870;2023-08-08T01:27:38;2.90;;;1.63;;
78664;SDS011;67981;51.022;-2.870;2023-08-08T01:30:06;5.45;;;2.00;;
78664;SDS011;67981;51.022;-2.870;2023-08-08T01:32:32;2.72;;;2.03;;
78664;SDS011;67981;51.022;-2.870;2023-08-08T01:34:57;3.08;;;1.90;;
78664;SDS011;67981;51.022;-2.870;2023-08-08T01:37:24;5.10;;;2.42;;
78664;SDS011;67981;51.022;-2.870;2023-08-08T01:39:57;3.05;;;1.70;;
78664;SDS011;67981;51.022;-2.870;2023-08-08T01:42:25;2.45;;;1.60;;
78664;SDS011;67981;51.022;-2.870;2023-08-08T01:44:52;3.55;;;2.17;;
78664;SDS011;67981;51.022;-2.870;2023-08-08T01:47:18;3.22;;;1.63;;
78664;SDS011;67981;51.022;-2.870;2023-08-08T01:49:43;3.83;;;1.52;;
78664;SDS011;67981;51.022;-2.870;2023-08-08T01:52:09;3.80;;;1.70;;
78664;SDS011;67981;51.022;-2.870;2023-08-08T01:54:34;4.70;;;1.80;;
78664;SDS011;67981;51.022;-2.870;2023-08-08T01:56:59;8.90;;;1.85;;
78664;SDS011;67981;51.022;-2.870;2023-08-08T01:59:25;2.58;;;1.67;;
78664;SDS011;67981;51.022;-2.870;2023-08-08T02:01:50;4.45;;;1.83;;
78664;SDS011;67981;51.022;-2.870;2023-08-08T02:04:16;5.05;;;1.42;;
78664;SDS011;67981;51.022;-2.870;2023-08-08T02:06:41;3.85;;;1.50;;
78664;SDS011;67981;51.022;-2.870;2023-08-08T02:09:07;3.53;;;1.65;;
78664;SDS011;67981;51.022;-2.870;2023-08-08T02:11:32;3.97;;;1.90;;
78664;SDS011;67981;51.022;-2.870;2023-08-08T02:13:58;3.65;;;1.70;;
78664;SDS011;67981;51.022;-2.870;2023-08-08T02:16:23;3.88;;;2.13;;
78664;SDS011;67981;51.022;-2.870;2023-08-08T02:18:48;3.10;;;1.70;;
78664;SDS011;67981;51.022;-2.870;2023-08-08T02:21:14;2.85;;;1.63;;
78664;SDS011;67981;51.022;-2.870;2023-08-08T02:23:40;3.50;;;1.63;;
78664;SDS011;67981;51.022;-2.870;2023-08-08T02:26:05;4.60;;;2.10;;
78664;SDS011;67981;51.022;-2.870;2023-08-08T02:28:30;3.55;;;1.75;;
78664;SDS011;67981;51.022;-2.870;2023-08-08T02:30:56;3.15;;;1.80;;
78664;SDS011;67981;51.022;-2.870;2023-08-08T02:33:21;2.78;;;1.70;;
78664;SDS011;67981;51.022;-2.870;2023-08-08T02:35:47;4.90;;;2.25;;
78664;SDS011;67981;51.022;-2.870;2023-08-08T02:38:12;3.70;;;1.88;;
78664;SDS011;67981;51.022;-2.870;2023-08-08T02:40:37;2.65;;;1.58;;
78664;SDS011;67981;51.022;-2.870;2023-08-08T02:43:03;2.75;;;1.65;;
78664;SDS011;67981;51.022;-2.870;2023-08-08T02:45:29;2.65;;;1.80;;
78664;SDS011;67981;51.022;-2.870;2023-08-08T02:47:55;2.95;;;1.48;;
78664;SDS011;67981;51.022;-2.870;2023-08-08T02:50:20;2.78;;;1.70;;
78664;SDS011;67981;51.022;-2.870;2023-08-08T02:52:45;5.93;;;1.83;;
78664;SDS011;67981;51.022;-2.870;2023-08-08T02:55:11;3.43;;;1.80;;
78664;SDS011;67981;51.022;-2.870;2023-08-08T02:57:36;3.97;;;2.00;;
78664;SDS011;67981;51.022;-2.870;2023-08-08T03:00:02;5.77;;;1.50;;
78664;SDS011;67981;51.022;-2.870;2023-08-08T03:02:29;5.30;;;1.70;;
78664;SDS011;67981;51.022;-2.870;2023-08-08T03:04:54;4.75;;;1.75;;
78664;SDS011;67981;51.022;-2.870;2023-08-08T03:07:20;4.30;;;1.83;;
78664;SDS011;67981;51.022;-2.870;2023-08-08T03:09:45;4.33;;;1.43;;
78664;SDS011;67981;51.022;-2.870;2023-08-08T03:12:10;3.00;;;1.83;;
78664;SDS011;67981;51.022;-2.870;2023-08-08T03:14:36;4.07;;;2.00;;
78664;SDS011;67981;51.022;-2.870;2023-08-08T03:17:01;2.67;;;1.43;;
78664;SDS011;67981;51.022;-2.870;2023-08-08T03:19:26;5.28;;;2.00;;
78664;SDS011;67981;51.022;-2.870;2023-08-08T03:21:52;7.13;;;2.00;;
78664;SDS011;67981;51.022;-2.870;2023-08-08T03:24:17;4.03;;;1.77;;
78664;SDS011;67981;51.022;-2.870;2023-08-08T03:26:43;4.00;;;1.70;;
78664;SDS011;67981;51.022;-2.870;2023-08-08T03:29:08;2.83;;;2.13;;
78664;SDS011;67981;51.022;-2.870;2023-08-08T03:31:35;3.35;;;1.42;;
78664;SDS011;67981;51.022;-2.870;2023-08-08T03:34:01;3.22;;;1.55;;
78664;SDS011;67981;51.022;-2.870;2023-08-08T03:36:27;4.20;;;2.00;;
78664;SDS011;67981;51.022;-2.870;2023-08-08T03:38:52;5.53;;;2.08;;
78664;SDS011;67981;51.022;-2.870;2023-08-08T03:41:17;3.95;;;2.13;;
78664;SDS011;67981;51.022;-2.870;2023-08-08T03:43:43;3.35;;;1.90;;
78664;SDS011;67981;51.022;-2.870;2023-08-08T03:46:08;3.03;;;1.50;;
78664;SDS011;67981;51.022;-2.870;2023-08-08T03:48:34;2.70;;;1.77;;
78664;SDS011;67981;51.022;-2.870;2023-08-08T03:50:59;3.88;;;1.83;;
78664;SDS011;67981;51.022;-2.870;2023-08-08T03:53:25;4.35;;;2.00;;
78664;SDS011;67981;51.022;-2.870;2023-08-08T03:55:50;3.15;;;1.80;;
78664;SDS011;67981;51.022;-2.870;2023-08-08T03:58:15;2.85;;;1.73;;
78664;SDS011;67981;51.022;-2.870;2023-08-08T04:00:41;2.70;;;1.50;;
78664;SDS011;67981;51.022;-2.870;2023-08-08T04:03:12;3.10;;;1.60;;
78664;SDS011;67981;51.022;-2.870;2023-08-08T04:05:39;3.88;;;2.00;;
78664;SDS011;67981;51.022;-2.870;2023-08-08T04:08:05;5.40;;;2.15;;
78664;SDS011;67981;51.022;-2.870;2023-08-08T04:10:31;5.13;;;2.22;;
78664;SDS011;67981;51.022;-2.870;2023-08-08T04:12:56;4.55;;;1.73;;
78664;SDS011;67981;51.022;-2.870;2023-08-08T04:15:22;7.40;;;1.93;;
78664;SDS011;67981;51.022;-2.870;2023-08-08T04:17:47;4.57;;;1.73;;
78664;SDS011;67981;51.022;-2.870;2023-08-08T04:20:12;3.37;;;1.90;;
78664;SDS011;67981;51.022;-2.870;2023-08-08T04:22:39;3.95;;;1.95;;
78664;SDS011;67981;51.022;-2.870;2023-08-08T04:25:05;3.15;;;2.03;;
78664;SDS011;67981;51.022;-2.870;2023-08-08T04:27:31;2.42;;;1.70;;
78664;SDS011;67981;51.022;-2.870;2023-08-08T04:29:56;5.15;;;2.42;;
78664;SDS011;67981;51.022;-2.870;2023-08-08T04:32:21;4.78;;;2.58;;
78664;SDS011;67981;51.022;-2.870;2023-08-08T04:34:47;2.65;;;1.83;;
78664;SDS011;67981;51.022;-2.870;2023-08-08T04:37:12;4.37;;;1.77;;
78664;SDS011;67981;51.022;-2.870;2023-08-08T04:39:37;3.67;;;1.75;;
78664;SDS011;67981;51.022;-2.870;2023-08-08T04:42:03;4.18;;;2.35;;
78664;SDS011;67981;51.022;-2.870;2023-08-08T04:44:29;4.15;;;1.90;;
78664;SDS011;67981;51.022;-2.870;2023-08-08T04:46:55;5.78;;;1.67;;
78664;SDS011;67981;51.022;-2.870;2023-08-08T04:49:20;3.25;;;1.70;;
78664;SDS011;67981;51.022;-2.870;2023-08-08T04:51:45;3.07;;;1.50;;
78664;SDS011;67981;51.022;-2.870;2023-08-08T04:54:11;3.47;;;1.65;;
78664;SDS011;67981;51.022;-2.870;2023-08-08T04:56:36;3.35;;;1.50;;
78664;SDS011;67981;51.022;-2.870;2023-08-08T04:59:01;4.30;;;1.75;;
78664;SDS011;67981;51.022;-2.870;2023-08-08T05:01:27;2.67;;;1.63;;
78664;SDS011;67981;51.022;-2.870;2023-08-08T05:03:53;5.60;;;1.93;;
78664;SDS011;67981;51.022;-2.870;2023-08-08T05:06:18;3.20;;;1.50;;
78664;SDS011;67981;51.022;-2.870;2023-08-08T05:08:44;4.63;;;1.50;;
78664;SDS011;67981;51.022;-2.870;2023-08-08T05:11:09;3.75;;;2.08;;
78664;SDS011;67981;51.022;-2.870;2023-08-08T05:13:35;4.78;;;1.80;;
78664;SDS011;67981;51.022;-2.870;2023-08-08T05:16:00;4.45;;;1.75;;
78664;SDS011;67981;51.022;-2.870;2023-08-08T05:18:25;4.43;;;1.52;;
78664;SDS011;67981;51.022;-2.870;2023-08-08T05:20:51;4.95;;;2.17;;
78664;SDS011;67981;51.022;-2.870;2023-08-08T05:23:16;4.25;;;1.55;;
78664;SDS011;67981;51.022;-2.870;2023-08-08T05:25:41;4.55;;;1.73;;
78664;SDS011;67981;51.022;-2.870;2023-08-08T05:28:07;3.80;;;1.70;;
78664;SDS011;67981;51.022;-2.870;2023-08-08T05:30:32;3.78;;;1.80;;
78664;SDS011;67981;51.022;-2.870;2023-08-08T05:32:58;5.13;;;1.95;;
78664;SDS011;67981;51.022;-2.870;2023-08-08T05:35:24;4.20;;;2.03;;
78664;SDS011;67981;51.022;-2.870;2023-08-08T05:37:49;4.88;;;1.48;;
78664;SDS011;67981;51.022;-2.870;2023-08-08T05:40:14;3.47;;;1.70;;
78664;SDS011;67981;51.022;-2.870;2023-08-08T05:42:40;6.15;;;2.10;;
78664;SDS011;67981;51.022;-2.870;2023-08-08T05:45:05;4.38;;;2.10;;
78664;SDS011;67981;51.022;-2.870;2023-08-08T05:47:32;4.10;;;2.13;;
78664;SDS011;67981;51.022;-2.870;2023-08-08T05:49:57;3.75;;;1.90;;
78664;SDS011;67981;51.022;-2.870;2023-08-08T05:52:23;3.43;;;2.20;;
78664;SDS011;67981;51.022;-2.870;2023-08-08T05:54:48;3.55;;;1.63;;
78664;SDS011;67981;51.022;-2.870;2023-08-08T05:57:14;5.38;;;2.35;;
78664;SDS011;67981;51.022;-2.870;2023-08-08T05:59:39;5.18;;;2.53;;
78664;SDS011;67981;51.022;-2.870;2023-08-08T06:02:04;2.70;;;1.70;;
78664;SDS011;67981;51.022;-2.870;2023-08-08T06:04:30;3.47;;;2.00;;
78664;SDS011;67981;51.022;-2.870;2023-08-08T06:06:56;4.90;;;2.05;;
78664;SDS011;67981;51.022;-2.870;2023-08-08T06:09:21;4.03;;;1.85;;
78664;SDS011;67981;51.022;-2.870;2023-08-08T06:11:47;3.83;;;2.15;;
78664;SDS011;67981;51.022;-2.870;2023-08-08T06:14:12;4.95;;;2.28;;
78664;SDS011;67981;51.022;-2.870;2023-08-08T06:16:38;3.28;;;1.77;;
78664;SDS011;67981;51.022;-2.870;2023-08-08T06:19:03;3.35;;;1.65;;
78664;SDS011;67981;51.022;-2.870;2023-08-08T06:21:29;4.15;;;1.98;;
78664;SDS011;67981;51.022;-2.870;2023-08-08T06:23:54;3.85;;;1.92;;
78664;SDS011;67981;51.022;-2.870;2023-08-08T06:26:23;4.10;;;2.10;;
78664;SDS011;67981;51.022;-2.870;2023-08-08T06:28:49;5.35;;;1.88;;
78664;SDS011;67981;51.022;-2.870;2023-08-08T06:31:16;3.40;;;2.20;;
78664;SDS011;67981;51.022;-2.870;2023-08-08T06:33:42;5.60;;;1.73;;
78664;SDS011;67981;51.022;-2.870;2023-08-08T06:36:08;3.20;;;2.10;;
78664;SDS011;67981;51.022;-2.870;2023-08-08T06:38:33;3.88;;;1.90;;
78664;SDS011;67981;51.022;-2.870;2023-08-08T06:40:59;3.60;;;1.83;;
78664;SDS011;67981;51.022;-2.870;2023-08-08T06:43:25;4.25;;;1.67;;
78664;SDS011;67981;51.022;-2.870;2023-08-08T06:45:51;4.55;;;2.00;;
78664;SDS011;67981;51.022;-2.870;2023-08-08T06:48:16;8.13;;;2.20;;
78664;SDS011;67981;51.022;-2.870;2023-08-08T06:50:42;3.45;;;1.85;;
78664;SDS011;67981;51.022;-2.870;2023-08-08T06:53:07;5.47;;;1.63;;
78664;SDS011;67981;51.022;-2.870;2023-08-08T06:55:33;2.75;;;2.00;;
78664;SDS011;67981;51.022;-2.870;2023-08-08T06:57:58;4.13;;;1.50;;
78664;SDS011;67981;51.022;-2.870;2023-08-08T07:00:24;5.50;;;2.60;;
78664;SDS011;67981;51.022;-2.870;2023-08-08T07:02:51;4.78;;;2.28;;
78664;SDS011;67981;51.022;-2.870;2023-08-08T07:05:16;4.43;;;2.05;;
78664;SDS011;67981;51.022;-2.870;2023-08-08T07:07:42;3.50;;;1.77;;
78664;SDS011;67981;51.022;-2.870;2023-08-08T07:10:09;6.38;;;2.25;;
78664;SDS011;67981;51.022;-2.870;2023-08-08T07:12:34;7.75;;;3.15;;
78664;SDS011;67981;51.022;-2.870;2023-08-08T07:15:00;7.65;;;2.35;;
78664;SDS011;67981;51.022;-2.870;2023-08-08T07:17:25;3.58;;;2.00;;
78664;SDS011;67981;51.022;-2.870;2023-08-08T07:19:50;4.60;;;2.33;;
78664;SDS011;67981;51.022;-2.870;2023-08-08T07:22:16;3.90;;;2.23;;
78664;SDS011;67981;51.022;-2.870;2023-08-08T07:24:41;4.25;;;2.10;;
78664;SDS011;67981;51.022;-2.870;2023-08-08T07:27:06;4.25;;;2.75;;
78664;SDS011;67981;51.022;-2.870;2023-08-08T07:29:32;4.47;;;2.37;;
78664;SDS011;67981;51.022;-2.870;2023-08-08T07:31:57;4.43;;;1.85;;
78664;SDS011;67981;51.022;-2.870;2023-08-08T07:34:23;5.03;;;2.15;;
78664;SDS011;67981;51.022;-2.870;2023-08-08T07:36:49;5.57;;;2.83;;
78664;SDS011;67981;51.022;-2.870;2023-08-08T07:39:15;5.72;;;2.97;;
78664;SDS011;67981;51.022;-2.870;2023-08-08T07:41:41;5.38;;;2.80;;
78664;SDS011;67981;51.022;-2.870;2023-08-08T07:44:06;5.13;;;2.47;;
78664;SDS011;67981;51.022;-2.870;2023-08-08T07:46:31;4.27;;;2.10;;
78664;SDS011;67981;51.022;-2.870;2023-08-08T07:48:57;6.07;;;2.00;;
78664;SDS011;67981;51.022;-2.870;2023-08-08T07:51:27;3.88;;;1.90;;
78664;SDS011;67981;51.022;-2.870;2023-08-08T07:53:52;6.00;;;1.98;;
78664;SDS011;67981;51.022;-2.870;2023-08-08T07:56:18;6.23;;;1.93;;
78664;SDS011;67981;51.022;-2.870;2023-08-08T07:58:43;2.93;;;1.97;;
78664;SDS011;67981;51.022;-2.870;2023-08-08T08:01:09;3.15;;;2.13;;
78664;SDS011;67981;51.022;-2.870;2023-08-08T08:03:34;5.28;;;2.35;;
78664;SDS011;67981;51.022;-2.870;2023-08-08T08:06:00;3.58;;;2.33;;
78664;SDS011;67981;51.022;-2.870;2023-08-08T08:08:25;3.65;;;1.83;;
78664;SDS011;67981;51.022;-2.870;2023-08-08T08:10:50;4.47;;;2.00;;
78664;SDS011;67981;51.022;-2.870;2023-08-08T08:13:16;4.50;;;1.83;;
78664;SDS011;67981;51.022;-2.870;2023-08-08T08:15:42;4.43;;;1.83;;
78664;SDS011;67981;51.022;-2.870;2023-08-08T08:18:08;3.08;;;1.63;;
78664;SDS011;67981;51.022;-2.870;2023-08-08T08:20:33;3.90;;;1.83;;
78664;SDS011;67981;51.022;-2.870;2023-08-08T08:22:59;3.33;;;1.50;;
78664;SDS011;67981;51.022;-2.870;2023-08-08T08:25:24;4.47;;;1.85;;
78664;SDS011;67981;51.022;-2.870;2023-08-08T08:27:50;3.20;;;1.30;;
78664;SDS011;67981;51.022;-2.870;2023-08-08T08:30:15;5.90;;;1.55;;
78664;SDS011;67981;51.022;-2.870;2023-08-08T08:32:40;4.95;;;1.60;;
78664;SDS011;67981;51.022;-2.870;2023-08-08T08:35:06;3.08;;;1.60;;
78664;SDS011;67981;51.022;-2.870;2023-08-08T08:37:32;3.35;;;1.38;;
78664;SDS011;67981;51.022;-2.870;2023-08-08T08:39:58;1.98;;;1.50;;
78664;SDS011;67981;51.022;-2.870;2023-08-08T08:42:24;3.75;;;1.45;;
78664;SDS011;67981;51.022;-2.870;2023-08-08T08:44:57;3.30;;;1.50;;
78664;SDS011;67981;51.022;-2.870;2023-08-08T08:47:23;3.08;;;1.77;;
78664;SDS011;67981;51.022;-2.870;2023-08-08T08:49:49;2.50;;;1.30;;
78664;SDS011;67981;51.022;-2.870;2023-08-08T08:52:16;2.95;;;1.35;;
78664;SDS011;67981;51.022;-2.870;2023-08-08T08:54:42;3.20;;;2.38;;
78664;SDS011;67981;51.022;-2.870;2023-08-08T08:57:07;2.83;;;1.60;;
78664;SDS011;67981;51.022;-2.870;2023-08-08T08:59:34;2.85;;;1.45;;
78664;SDS011;67981;51.022;-2.870;2023-08-08T09:02:00;1.85;;;1.05;;
78664;SDS011;67981;51.022;-2.870;2023-08-08T09:04:27;3.78;;;1.33;;
78664;SDS011;67981;51.022;-2.870;2023-08-08T09:06:53;2.10;;;1.20;;
78664;SDS011;67981;51.022;-2.870;2023-08-08T09:09:19;3.65;;;1.55;;
78664;SDS011;67981;51.022;-2.870;2023-08-08T09:11:50;3.28;;;1.05;;
78664;SDS011;67981;51.022;-2.870;2023-08-08T09:14:23;2.33;;;1.10;;
78664;SDS011;67981;51.022;-2.870;2023-08-08T09:16:51;2.20;;;1.10;;
78664;SDS011;67981;51.022;-2.870;2023-08-08T09:19:22;2.28;;;1.08;;
78664;SDS011;67981;51.022;-2.870;2023-08-08T09:21:48;3.78;;;1.25;;
78664;SDS011;67981;51.022;-2.870;2023-08-08T09:24:14;1.52;;;0.90;;
78664;SDS011;67981;51.022;-2.870;2023-08-08T09:26:40;5.38;;;1.88;;
78664;SDS011;67981;51.022;-2.870;2023-08-08T09:29:06;2.35;;;1.17;;
78664;SDS011;67981;51.022;-2.870;2023-08-08T09:31:34;2.28;;;1.15;;
78664;SDS011;67981;51.022;-2.870;2023-08-08T09:34:00;2.25;;;1.10;;
78664;SDS011;67981;51.022;-2.870;2023-08-08T09:36:27;4.30;;;1.02;;
78664;SDS011;67981;51.022;-2.870;2023-08-08T09:38:53;4.50;;;1.00;;
78664;SDS011;67981;51.022;-2.870;2023-08-08T09:41:19;3.90;;;1.50;;
78664;SDS011;67981;51.022;-2.870;2023-08-08T09:43:47;3.50;;;1.50;;
78664;SDS011;67981;51.022;-2.870;2023-08-08T09:46:13;1.95;;;1.17;;
78664;SDS011;67981;51.022;-2.870;2023-08-08T09:48:40;2.45;;;1.13;;
78664;SDS011;67981;51.022;-2.870;2023-08-08T09:51:06;2.63;;;1.30;;
78664;SDS011;67981;51.022;-2.870;2023-08-08T09:53:32;1.45;;;0.80;;
78664;SDS011;67981;51.022;-2.870;2023-08-08T09:55:58;1.20;;;0.77;;
78664;SDS011;67981;51.022;-2.870;2023-08-08T10:00:52;2.07;;;1.03;;
78664;SDS011;67981;51.022;-2.870;2023-08-08T10:03:17;1.57;;;0.90;;
78664;SDS011;67981;51.022;-2.870;2023-08-08T10:05:44;1.65;;;0.80;;
78664;SDS011;67981;51.022;-2.870;2023-08-08T10:08:09;7.43;;;2.33;;
78664;SDS011;67981;51.022;-2.870;2023-08-08T10:10:36;1.15;;;0.73;;
78664;SDS011;67981;51.022;-2.870;2023-08-08T10:13:02;1.75;;;1.10;;
78664;SDS011;67981;51.022;-2.870;2023-08-08T10:15:29;2.47;;;1.10;;
78664;SDS011;67981;51.022;-2.870;2023-08-08T10:17:57;2.53;;;1.33;;
78664;SDS011;67981;51.022;-2.870;2023-08-08T10:20:25;2.60;;;1.00;;
78664;SDS011;67981;51.022;-2.870;2023-08-08T10:22:52;1.20;;;0.80;;
78664;SDS011;67981;51.022;-2.870;2023-08-08T10:25:23;3.65;;;0.80;;
78664;SDS011;67981;51.022;-2.870;2023-08-08T10:28:00;1.50;;;0.70;;
78664;SDS011;67981;51.022;-2.870;2023-08-08T10:30:28;0.80;;;0.50;;
78664;SDS011;67981;51.022;-2.870;2023-08-08T10:32:56;0.77;;;0.57;;
78664;SDS011;67981;51.022;-2.870;2023-08-08T10:35:22;1.08;;;0.70;;
78664;SDS011;67981;51.022;-2.870;2023-08-08T10:37:53;1.30;;;0.52;;
78664;SDS011;67981;51.022;-2.870;2023-08-08T10:40:19;1.08;;;0.63;;
78664;SDS011;67981;51.022;-2.870;2023-08-08T10:42:45;0.93;;;0.50;;
78664;SDS011;67981;51.022;-2.870;2023-08-08T10:45:12;0.55;;;0.40;;
78664;SDS011;67981;51.022;-2.870;2023-08-08T10:47:39;1.30;;;0.40;;
78664;SDS011;67981;51.022;-2.870;2023-08-08T10:50:09;1.40;;;0.75;;
78664;SDS011;67981;51.022;-2.870;2023-08-08T11:00:24;3.50;;;0.50;;
78664;SDS011;67981;51.022;-2.870;2023-08-08T11:02:53;1.00;;;0.60;;
78664;SDS011;67981;51.022;-2.870;2023-08-08T11:05:19;0.73;;;0.45;;
78664;SDS011;67981;51.022;-2.870;2023-08-08T11:07:45;1.40;;;0.85;;
78664;SDS011;67981;51.022;-2.870;2023-08-08T11:10:10;0.85;;;0.60;;
78664;SDS011;67981;51.022;-2.870;2023-08-08T11:12:36;0.73;;;0.50;;
78664;SDS011;67981;51.022;-2.870;2023-08-08T11:15:02;1.08;;;0.60;;
78664;SDS011;67981;51.022;-2.870;2023-08-08T11:17:27;0.75;;;0.40;;
78664;SDS011;67981;51.022;-2.870;2023-08-08T11:19:53;1.33;;;0.77;;
78664;SDS011;67981;51.022;-2.870;2023-08-08T11:22:20;1.20;;;0.70;;
78664;SDS011;67981;51.022;-2.870;2023-08-08T11:24:47;2.53;;;0.65;;
78664;SDS011;67981;51.022;-2.870;2023-08-08T11:27:15;1.88;;;0.65;;
78664;SDS011;67981;51.022;-2.870;2023-08-08T11:29:40;0.52;;;0.50;;
78664;SDS011;67981;51.022;-2.870;2023-08-08T11:32:13;0.60;;;0.40;;
78664;SDS011;67981;51.022;-2.870;2023-08-08T11:34:39;0.93;;;0.45;;
78664;SDS011;67981;51.022;-2.870;2023-08-08T11:37:04;0.90;;;0.57;;
78664;SDS011;67981;51.022;-2.870;2023-08-08T11:39:30;0.80;;;0.52;;
78664;SDS011;67981;51.022;-2.870;2023-08-08T11:41:55;1.02;;;0.60;;
78664;SDS011;67981;51.022;-2.870;2023-08-08T11:44:21;0.85;;;0.50;;
78664;SDS011;67981;51.022;-2.870;2023-08-08T11:46:46;0.95;;;0.65;;
78664;SDS011;67981;51.022;-2.870;2023-08-08T11:49:13;1.38;;;0.65;;
78664;SDS011;67981;51.022;-2.870;2023-08-08T11:51:42;0.70;;;0.50;;
78664;SDS011;67981;51.022;-2.870;2023-08-08T11:54:08;1.15;;;0.60;;
78664;SDS011;67981;51.022;-2.870;2023-08-08T11:56:34;0.52;;;0.40;;
78664;SDS011;67981;51.022;-2.870;2023-08-08T11:59:00;1.52;;;0.77;;
78664;SDS011;67981;51.022;-2.870;2023-08-08T12:01:25;1.50;;;0.77;;
78664;SDS011;67981;51.022;-2.870;2023-08-08T12:03:52;2.90;;;1.00;;
78664;SDS011;67981;51.022;-2.870;2023-08-08T12:06:18;0.77;;;0.60;;
78664;SDS011;67981;51.022;-2.870;2023-08-08T12:08:44;1.75;;;0.75;;
78664;SDS011;67981;51.022;-2.870;2023-08-08T12:11:11;1.48;;;0.60;;
78664;SDS011;67981;51.022;-2.870;2023-08-08T12:13:38;1.02;;;0.75;;
78664;SDS011;67981;51.022;-2.870;2023-08-08T12:16:05;2.33;;;0.82;;
78664;SDS011;67981;51.022;-2.870;2023-08-08T12:18:32;2.47;;;0.85;;
78664;SDS011;67981;51.022;-2.870;2023-08-08T12:20:58;3.25;;;0.70;;
78664;SDS011;67981;51.022;-2.870;2023-08-08T12:23:23;0.98;;;0.40;;
78664;SDS011;67981;51.022;-2.870;2023-08-08T12:25:50;0.80;;;0.52;;
78664;SDS011;67981;51.022;-2.870;2023-08-08T12:28:15;1.77;;;0.60;;
78664;SDS011;67981;51.022;-2.870;2023-08-08T12:30:40;1.00;;;0.60;;
78664;SDS011;67981;51.022;-2.870;2023-08-08T12:33:06;2.00;;;0.70;;
78664;SDS011;67981;51.022;-2.870;2023-08-08T12:35:31;0.82;;;0.70;;
78664;SDS011;67981;51.022;-2.870;2023-08-08T12:37:56;1.67;;;1.07;;
78664;SDS011;67981;51.022;-2.870;2023-08-08T12:40:22;1.33;;;0.70;;
78664;SDS011;67981;51.022;-2.870;2023-08-08T12:42:47;1.10;;;0.60;;
78664;SDS011;67981;51.022;-2.870;2023-08-08T12:45:13;1.30;;;0.60;;
78664;SDS011;67981;51.022;-2.870;2023-08-08T12:47:39;0.80;;;0.60;;
78664;SDS011;67981;51.022;-2.870;2023-08-08T12:50:04;1.02;;;0.60;;
78664;SDS011;67981;51.022;-2.870;2023-08-08T12:52:31;2.05;;;0.73;;
78664;SDS011;67981;51.022;-2.870;2023-08-08T12:54:56;1.73;;;1.15;;
78664;SDS011;67981;51.022;-2.870;2023-08-08T12:57:21;1.13;;;0.80;;
78664;SDS011;67981;51.022;-2.870;2023-08-08T12:59:47;2.50;;;0.95;;
78664;SDS011;67981;51.022;-2.870;2023-08-08T13:02:13;3.80;;;1.20;;
78664;SDS011;67981;51.022;-2.870;2023-08-08T13:04:38;2.58;;;1.13;;
78664;SDS011;67981;51.022;-2.870;2023-08-08T13:07:03;1.85;;;0.93;;
78664;SDS011;67981;51.022;-2.870;2023-08-08T13:09:29;3.28;;;1.23;;
78664;SDS011;67981;51.022;-2.870;2023-08-08T13:11:54;3.05;;;1.40;;
78664;SDS011;67981;51.022;-2.870;2023-08-08T13:14:20;4.40;;;2.25;;
78664;SDS011;67981;51.022;-2.870;2023-08-08T13:16:46;2.10;;;1.42;;
78664;SDS011;67981;51.022;-2.870;2023-08-08T13:19:11;2.90;;;1.15;;
78664;SDS011;67981;51.022;-2.870;2023-08-08T13:21:37;3.65;;;1.80;;
78664;SDS011;67981;51.022;-2.870;2023-08-08T13:24:02;2.35;;;1.58;;
78664;SDS011;67981;51.022;-2.870;2023-08-08T13:26:29;2.78;;;1.70;;
78664;SDS011;67981;51.022;-2.870;2023-08-08T13:28:54;3.30;;;2.35;;
78664;SDS011;67981;51.022;-2.870;2023-08-08T13:31:19;3.55;;;1.70;;
78664;SDS011;67981;51.022;-2.870;2023-08-08T13:33:45;2.97;;;1.60;;
78664;SDS011;67981;51.022;-2.870;2023-08-08T13:36:10;4.70;;;2.58;;
78664;SDS011;67981;51.022;-2.870;2023-08-08T13:38:36;8.50;;;2.90;;
78664;SDS011;67981;51.022;-2.870;2023-08-08T13:41:01;3.33;;;1.83;;
78664;SDS011;67981;51.022;-2.870;2023-08-08T13:43:26;4.65;;;2.58;;
78664;SDS011;67981;51.022;-2.870;2023-08-08T13:45:52;7.22;;;3.25;;
78664;SDS011;67981;51.022;-2.870;2023-08-08T13:48:17;7.20;;;4.22;;
78664;SDS011;67981;51.022;-2.870;2023-08-08T13:50:43;5.70;;;3.35;;
78664;SDS011;67981;51.022;-2.870;2023-08-08T13:53:08;9.82;;;5.28;;
78664;SDS011;67981;51.022;-2.870;2023-08-08T13:55:34;5.85;;;3.45;;
78664;SDS011;67981;51.022;-2.870;2023-08-08T13:58:04;6.85;;;3.38;;
78664;SDS011;67981;51.022;-2.870;2023-08-08T14:00:30;12.27;;;4.78;;
78664;SDS011;67981;51.022;-2.870;2023-08-08T14:02:56;14.60;;;6.13;;
78664;SDS011;67981;51.022;-2.870;2023-08-08T14:05:22;8.88;;;5.75;;
78664;SDS011;67981;51.022;-2.870;2023-08-08T14:07:48;6.53;;;3.70;;
78664;SDS011;67981;51.022;-2.870;2023-08-08T14:10:13;6.55;;;3.25;;
78664;SDS011;67981;51.022;-2.870;2023-08-08T14:12:40;5.05;;;2.55;;
78664;SDS011;67981;51.022;-2.870;2023-08-08T14:15:06;3.63;;;2.00;;
78664;SDS011;67981;51.022;-2.870;2023-08-08T14:17:34;5.50;;;2.92;;
78664;SDS011;67981;51.022;-2.870;2023-08-08T14:20:00;3.30;;;1.73;;
78664;SDS011;67981;51.022;-2.870;2023-08-08T14:22:25;2.75;;;1.80;;
78664;SDS011;67981;51.022;-2.870;2023-08-08T14:24:50;3.28;;;1.20;;
78664;SDS011;67981;51.022;-2.870;2023-08-08T14:27:16;2.72;;;1.17;;
78664;SDS011;67981;51.022;-2.870;2023-08-08T14:29:41;3.25;;;0.90;;
78664;SDS011;67981;51.022;-2.870;2023-08-08T14:32:07;1.95;;;1.02;;
78664;SDS011;67981;51.022;-2.870;2023-08-08T14:34:32;1.43;;;0.90;;
78664;SDS011;67981;51.022;-2.870;2023-08-08T14:36:59;1.73;;;0.93;;
78664;SDS011;67981;51.022;-2.870;2023-08-08T14:39:26;2.22;;;1.20;;